Terminal Aerodrome Forecast
Issued by NWS Wilmington, OH

Current Version | Previous Version | Graphics & Text | Print | Product List | Glossary On
Versions: 1 2 3 4 5 6 7 8 9 10 11 12 13 14
000
FTUS41 KILN 041700 RRA
TAFILN
TAF
KILN 041743Z 0418/0518 24014KT P6SM SCT050 BKN150
     FM042100 23012KT P6SM VCSH BKN060
     FM042300 22010KT 3SM -SHRA VCTS BKN050CB OVC150
      TEMPO 0500/0502 2SM -TSRA
     FM050300 22007KT 5SM -SHRA BKN050 OVC120
     FM050500 22006KT P6SM -SHRA BKN050 OVC120
     FM050800 22006KT P6SM SCT050 BKN120
     FM051500 24011KT P6SM SCT050 BKN120=

USA.gov is the U.S. government's official web portal to all federal, state and local government web resources and services.